Glen Alpine, North Carolina
Current Conditions -  °F | °C
As of 12:15 AM on Saturday 29 Nov 2014 (Local Time) from KMRN Reporting Station
Clear Clear  
Wind Chill: 28°   Ceiling: Unl
Heat Index: 28°   Visibility: 10mi
Dew Point: 26°   Wind: 0mph
Humidity: 90%   Direction: NA
Pressure: 30.28"   Gusts: NA
Location:  35.73°N, 81.78°W
Report Text: KMRN 290515Z AUTO 00000KT 10SM CLR M02/M04 A3028 RMK AO2 T10221036
Loading
Personal Weather Stations






























Interactive Weather Map New forecast layout! Learn more

10-Day Weather Forecast

Advertisements
Track Severe Weather on mobile